Time;durP1;ratioP1;P1;durP2;ratioP2;P2;SDS_P1;SDS_P2;PMS_P1;PMS_P2;Temp;Humidity;BMP_temperature;BMP_pressure;BME280_temperature;BME280_humidity;BME280_pressure;Samples;Min_cycle;Max_cycle;Signal;HPM_P1;HPM_P2
2022/05/02 00:00:13;;;;;;;;;;;;;;;-143.90;100.00;55168.81;2097497;28;19928;-66
2022/05/02 00:01:34;;;;;;;;;;;;;;;-143.90;100.00;55198.59;2089114;28;19948;-65
2022/05/02 00:02:54;;;;;;;;;;;;;;;-143.90;100.00;55206.53;2094860;28;20347;-66
2022/05/02 00:04:15;;;;;;;;;;;;;;;-143.90;100.00;55236.31;2097450;28;20007;-65
2022/05/02 00:05:36;;;;;;;;;;;;;;;-143.90;100.00;55178.72;2096803;28;20404;-66
2022/05/02 00:06:56;;;;;;;;;;;;;;;-143.90;100.00;55190.66;2098103;28;20375;-65
2022/05/02 00:08:17;;;;;;;;;;;;;;;-143.90;100.00;55182.69;2097534;28;19920;-65
2022/05/02 00:09:38;;;;;;;;;;;;;;;-143.90;100.00;55214.47;2098333;28;19998;-65
2022/05/02 00:10:59;;;;;;;;;;;;;;;-143.90;100.00;55234.31;2098511;28;19936;-65
2022/05/02 00:12:19;;;;;;;;;;;;;;;-143.90;100.00;55242.28;2097957;28;19924;-65
2022/05/02 00:13:40;;;;;;;;;;;;;;;-143.90;100.00;55182.69;2097972;28;20010;-66
2022/05/02 00:15:01;;;;;;;;;;;;;;;-143.90;100.00;55220.44;2096779;28;19922;-66
2022/05/02 00:16:22;;;;;;;;;;;;;;;-143.90;100.00;55208.50;2097633;28;20273;-65
2022/05/02 00:17:58;;;;;;;;;;;;;;;-143.90;100.00;55214.47;2097333;28;19924;-65
2022/05/02 00:19:18;;;;;;;;;;;;;;;-143.90;100.00;55198.59;2096801;28;19978;-65
2022/05/02 00:20:40;;;;;;;;;;;;;;;-143.90;100.00;55186.69;2099447;28;20042;-65
2022/05/02 00:22:01;;;;;;;;;;;;;;;-143.90;100.00;55214.47;2098627;28;19971;-66
2022/05/02 00:23:22;;;;;;;;;;;;;;;-143.90;100.00;55206.53;2099620;28;19934;-66
2022/05/02 00:24:43;;;;;;;;;;;;;;;-143.90;100.00;55168.81;2095869;28;19920;-65
2022/05/02 00:26:04;;;;;;;;;;;;;;;-143.90;100.00;55190.66;2096675;28;20538;-65
2022/05/02 00:27:26;;;;;;;;;;;;;;;-143.90;100.00;55226.38;2096768;28;20036;-65
2022/05/02 00:28:47;;;;;;;;;;;;;;;-143.90;100.00;55214.47;2098503;28;20036;-65
2022/05/02 00:30:08;;;;;;;;;;;;;;;-143.90;100.00;55210.50;2088487;28;19983;-65
2022/05/02 00:31:29;;;;;;;;;;;;;;;-143.90;100.00;55180.72;2093857;28;19930;-65
2022/05/02 00:32:50;;;;;;;;;;;;;;;-143.90;100.00;55160.84;2097867;28;19977;-66
2022/05/02 00:34:10;;;;;;;;;;;;;;;-143.90;100.00;55176.75;2096816;28;19927;-65
2022/05/02 00:35:31;;;;;;;;;;;;;;;-143.90;100.00;55174.75;2097783;28;19923;-65
2022/05/02 00:36:52;;;;;;;;;;;;;;;-143.90;100.00;55238.31;2096940;28;19921;-65
2022/05/02 00:38:12;;;;;;;;;;;;;;;-143.90;100.00;55172.78;2097516;28;19964;-66
2022/05/02 00:39:33;;;;;;;;;;;;;;;-143.90;100.00;55216.47;2098991;28;19919;-66
2022/05/02 00:40:54;;;;;;;;;;;;;;;-143.90;100.00;55146.97;2099243;28;19931;-65
2022/05/02 00:42:15;;;;;;;;;;;;;;;-143.90;100.00;55194.63;2088541;28;19931;-65
2022/05/02 00:43:35;;;;;;;;;;;;;;;-143.90;100.00;55198.59;2094104;28;20187;-65
2022/05/02 00:44:56;;;;;;;;;;;;;;;-143.90;100.00;55218.44;2098242;28;19928;-65
2022/05/02 00:46:18;;;;;;;;;;;;;;;-143.90;100.00;55210.50;2095719;28;19943;-66
2022/05/02 00:47:39;;;;;;;;;;;;;;;-143.90;100.00;55170.78;2098703;28;19920;-65
2022/05/02 00:48:59;;;;;;;;;;;;;;;-143.90;100.00;55218.44;2098415;28;19971;-65
2022/05/02 00:50:39;;;;;;;;;;;;;;;-143.90;100.00;55218.44;2097280;28;20010;-65
2022/05/02 00:52:00;;;;;;;;;;;;;;;-143.90;100.00;55174.75;2096109;28;20011;-65
2022/05/02 00:53:22;;;;;;;;;;;;;;;-143.90;100.00;55202.56;2088965;28;19920;-66
2022/05/02 00:54:43;;;;;;;;;;;;;;;-143.90;100.00;55182.69;2093907;28;19920;-65
2022/05/02 00:56:04;;;;;;;;;;;;;;;-143.90;100.00;55194.63;2097874;28;20396;-65
2022/05/02 00:57:24;;;;;;;;;;;;;;;-143.90;100.00;55206.53;2095816;28;19920;-65
2022/05/02 00:58:45;;;;;;;;;;;;;;;-143.90;100.00;55208.50;2098746;28;19920;-66
2022/05/02 01:00:06;;;;;;;;;;;;;;;-143.90;100.00;55186.69;2099143;28;19967;-65
2022/05/02 01:01:27;;;;;;;;;;;;;;;-143.90;100.00;55214.47;2097022;28;20394;-65
2022/05/02 01:02:47;;;;;;;;;;;;;;;-143.90;100.00;55200.56;2098152;27;19927;-66
2022/05/02 01:04:08;;;;;;;;;;;;;;;-143.90;100.00;55206.53;2087608;28;19932;-66
2022/05/02 01:05:29;;;;;;;;;;;;;;;-143.90;100.00;55218.44;2094599;28;20434;-65
2022/05/02 01:08:30;;;;;;;;;;;;;;;-143.90;100.00;55204.53;2097046;28;20519;-65
2022/05/02 01:09:51;;;;;;;;;;;;;;;-143.90;100.00;55186.69;2097025;28;20335;-65
2022/05/02 01:11:12;;;;;;;;;;;;;;;-143.90;100.00;55206.53;2096020;28;19967;-65
2022/05/02 01:12:33;;;;;;;;;;;;;;;-143.90;100.00;55250.22;2098508;28;19920;-65
2022/05/02 01:13:54;;;;;;;;;;;;;;;-143.90;100.00;55212.50;2098320;28;20444;-65
2022/05/02 01:15:16;;;;;;;;;;;;;;;-143.90;100.00;55198.59;2096353;28;20435;-66
2022/05/02 01:16:36;;;;;;;;;;;;;;;-143.90;100.00;55230.34;2099507;28;20045;-65
2022/05/02 01:17:57;;;;;;;;;;;;;;;-143.90;100.00;55202.56;2096828;28;19924;-66
2022/05/02 01:19:18;;;;;;;;;;;;;;;-143.90;100.00;55182.69;2098279;28;19967;-65
2022/05/02 01:20:38;;;;;;;;;;;;;;;-143.90;100.00;55234.31;2096116;28;19924;-66
2022/05/02 01:21:59;;;;;;;;;;;;;;;-143.90;100.00;55182.69;2096770;28;19986;-65
2022/05/02 01:23:20;;;;;;;;;;;;;;;-143.90;100.00;55208.50;2097675;28;19924;-66
2022/05/02 01:24:42;;;;;;;;;;;;;;;-143.90;100.00;55238.31;2096891;28;19920;-65
2022/05/02 01:26:02;;;;;;;;;;;;;;;-143.90;100.00;55222.41;2099666;28;20560;-66
2022/05/02 01:27:23;;;;;;;;;;;;;;;-143.90;100.00;55198.59;2096132;28;19913;-65
2022/05/02 01:28:44;;;;;;;;;;;;;;;-143.90;100.00;55202.56;2092513;28;19971;-65
2022/05/02 01:30:05;;;;;;;;;;;;;;;-143.90;100.00;55200.56;2095906;28;20500;-65
2022/05/02 01:31:26;;;;;;;;;;;;;;;-143.90;100.00;55206.53;2095407;28;19935;-65
2022/05/02 01:32:47;;;;;;;;;;;;;;;-143.90;100.00;55186.69;2097341;28;19924;-65
2022/05/02 01:34:07;;;;;;;;;;;;;;;-143.90;100.00;55182.69;2096258;28;19920;-66
2022/05/02 01:35:28;;;;;;;;;;;;;;;-143.90;100.00;55218.44;2081232;28;19929;-66
2022/05/02 01:36:49;;;;;;;;;;;;;;;-143.90;100.00;55214.47;2081476;28;19928;-65
2022/05/02 01:38:09;;;;;;;;;;;;;;;-143.90;100.00;55206.53;2079604;28;20335;-66
2022/05/02 01:39:30;;;;;;;;;;;;;;;-143.90;100.00;55218.44;2081350;28;19924;-65
2022/05/02 01:40:51;;;;;;;;;;;;;;;-143.90;100.00;55198.59;2079755;28;19928;-65
2022/05/02 01:42:11;;;;;;;;;;;;;;;-143.90;100.00;55242.28;2081192;28;19960;-65
2022/05/02 01:43:33;;;;;;;;;;;;;;;-143.90;100.00;55178.72;2080196;28;20695;-65
2022/05/02 01:44:53;;;;;;;;;;;;;;;-143.90;100.00;55168.81;2080087;28;20510;-66
2022/05/02 01:46:14;;;;;;;;;;;;;;;-143.90;100.00;55214.47;2081750;28;20320;-66
2022/05/02 01:47:35;;;;;;;;;;;;;;;-143.90;100.00;55214.47;2078202;28;19924;-65
2022/05/02 01:48:56;;;;;;;;;;;;;;;-143.90;100.00;55206.53;2080769;28;20226;-66
2022/05/02 01:50:16;;;;;;;;;;;;;;;-143.90;100.00;55170.78;2088423;28;19925;-66
2022/05/02 01:51:37;;;;;;;;;;;;;;;-143.90;100.00;55174.75;2080160;28;19991;-66
2022/05/02 01:52:58;;;;;;;;;;;;;;;-143.90;100.00;55174.75;2081025;28;20006;-66
2022/05/02 01:54:18;;;;;;;;;;;;;;;-143.90;100.00;55206.53;2079173;28;20450;-65
2022/05/02 01:55:40;;;;;;;;;;;;;;;-143.90;100.00;55180.72;2080130;28;19925;-66
2022/05/02 01:57:00;;;;;;;;;;;;;;;-143.90;100.00;55200.56;2079699;28;19921;-65
2022/05/02 01:58:21;;;;;;;;;;;;;;;-143.90;100.00;55186.69;2079668;28;20388;-65
2022/05/02 01:59:42;;;;;;;;;;;;;;;-143.90;100.00;55214.47;2081551;28;19967;-65
2022/05/02 02:01:03;;;;;;;;;;;;;;;-143.90;100.00;55194.63;2080139;28;20509;-65
2022/05/02 02:02:24;;;;;;;;;;;;;;;-143.90;100.00;55214.47;2078666;28;20390;-66
2022/05/02 02:03:44;;;;;;;;;;;;;;;-143.90;100.00;55174.75;2079833;28;19959;-65
2022/05/02 02:06:45;;;;;;;;;;;;;;;-143.90;100.00;55162.84;2079276;28;19931;-65
2022/05/02 02:08:05;;;;;;;;;;;;;;;-143.90;100.00;55190.66;2082092;28;19932;-65
2022/05/02 02:09:26;;;;;;;;;;;;;;;-143.90;100.00;55198.59;2081830;28;19924;-65
2022/05/02 02:10:47;;;;;;;;;;;;;;;-143.90;100.00;55190.66;2080914;28;19998;-65
2022/05/02 02:12:08;;;;;;;;;;;;;;;-143.90;100.00;55182.69;2078910;28;19947;-65
2022/05/02 02:13:30;;;;;;;;;;;;;;;-143.90;100.00;55246.25;2080243;28;20024;-66
2022/05/02 02:14:50;;;;;;;;;;;;;;;-143.90;100.00;55184.69;2080039;28;19973;-66
2022/05/02 02:16:13;;;;;;;;;;;;;;;-143.90;100.00;55222.41;2079143;28;20040;-66
2022/05/02 02:17:34;;;;;;;;;;;;;;;-143.90;100.00;55212.50;2081185;28;19920;-65
2022/05/02 02:18:54;;;;;;;;;;;;;;;-143.90;100.00;55178.72;2079628;28;19920;-65
2022/05/02 02:20:15;;;;;;;;;;;;;;;-143.90;100.00;55198.59;2081129;28;20397;-65
2022/05/02 02:21:36;;;;;;;;;;;;;;;-143.90;100.00;55206.53;2078870;28;19968;-66
2022/05/02 02:22:56;;;;;;;;;;;;;;;-143.90;100.00;55218.44;2079521;28;19964;-66
2022/05/02 02:24:17;;;;;;;;;;;;;;;-143.90;100.00;55190.66;2080646;28;19921;-65
2022/05/02 02:25:38;;;;;;;;;;;;;;;-143.90;100.00;55186.69;2085972;28;19932;-66
2022/05/02 02:26:59;;;;;;;;;;;;;;;-143.90;100.00;55208.50;2083249;28;19927;-66
2022/05/02 02:28:20;;;;;;;;;;;;;;;-143.90;100.00;55210.50;2081465;28;19927;-65
2022/05/02 02:29:40;;;;;;;;;;;;;;;-143.90;100.00;55184.69;2079158;28;19920;-66
2022/05/02 02:31:01;;;;;;;;;;;;;;;-143.90;100.00;55182.69;2079009;28;20242;-66
2022/05/02 02:32:22;;;;;;;;;;;;;;;-143.90;100.00;55170.78;2079351;28;19982;-65
2022/05/02 02:33:43;;;;;;;;;;;;;;;-143.90;100.00;55170.78;2079800;28;19921;-65
2022/05/02 02:35:03;;;;;;;;;;;;;;;-143.90;100.00;55230.34;2091502;28;19955;-65
2022/05/02 02:36:24;;;;;;;;;;;;;;;-143.90;100.00;55198.59;2096864;28;19924;-65
2022/05/02 02:37:46;;;;;;;;;;;;;;;-143.90;100.00;55196.59;2096075;28;19964;-66
2022/05/02 02:39:06;;;;;;;;;;;;;;;-143.90;100.00;55174.75;2094022;28;20060;-66
2022/05/02 02:40:27;;;;;;;;;;;;;;;-143.90;100.00;55198.59;2096900;28;20331;-66
2022/05/02 02:41:48;;;;;;;;;;;;;;;-143.90;100.00;55186.69;2095233;28;19926;-66
2022/05/02 02:43:09;;;;;;;;;;;;;;;-143.90;100.00;55166.81;2098106;28;19935;-66
2022/05/02 02:44:30;;;;;;;;;;;;;;;-143.90;100.00;55190.66;2096978;28;19967;-65
2022/05/02 02:45:50;;;;;;;;;;;;;;;-143.90;100.00;55214.47;2095785;28;20034;-66
2022/05/02 02:47:11;;;;;;;;;;;;;;;-143.90;100.00;55182.69;2096913;28;20104;-66
2022/05/02 02:48:32;;;;;;;;;;;;;;;-143.90;100.00;55190.66;2095273;28;19920;-65
2022/05/02 02:49:52;;;;;;;;;;;;;;;-143.90;100.00;55180.72;2095659;28;19920;-65
2022/05/02 02:51:13;;;;;;;;;;;;;;;-143.90;100.00;55174.75;2096603;28;19920;-65
2022/05/02 02:52:34;;;;;;;;;;;;;;;-143.90;100.00;55174.75;2098075;28;19928;-66
2022/05/02 02:53:54;;;;;;;;;;;;;;;-143.90;100.00;55186.69;2096691;28;19921;-65
2022/05/02 02:55:15;;;;;;;;;;;;;;;-143.90;100.00;55180.72;2096190;28;19927;-65
2022/05/02 02:56:36;;;;;;;;;;;;;;;-143.90;100.00;55162.84;2096189;28;20059;-66
2022/05/02 02:57:56;;;;;;;;;;;;;;;-143.90;100.00;55158.88;2096715;28;19924;-65
2022/05/02 02:59:18;;;;;;;;;;;;;;;-143.90;100.00;55206.53;2095300;28;19942;-66
2022/05/02 03:00:39;;;;;;;;;;;;;;;-143.90;100.00;55186.69;2096638;28;20302;-65
2022/05/02 03:02:00;;;;;;;;;;;;;;;-143.90;100.00;55198.59;2095495;28;20684;-66
2022/05/02 03:03:20;;;;;;;;;;;;;;;-143.90;100.00;55210.50;2096981;28;20497;-66
2022/05/02 03:06:22;;;;;;;;;;;;;;;-143.90;100.00;55158.88;2075191;28;20411;-66
2022/05/02 03:07:43;;;;;;;;;;;;;;;-143.90;100.00;55214.47;2096637;28;20364;-66
2022/05/02 03:09:03;;;;;;;;;;;;;;;-143.90;100.00;55194.63;2095783;28;20403;-65
2022/05/02 03:10:25;;;;;;;;;;;;;;;-143.90;100.00;55170.78;2096393;28;19924;-65
2022/05/02 03:11:46;;;;;;;;;;;;;;;-143.90;100.00;55214.47;2098357;28;20348;-65
2022/05/02 03:13:06;;;;;;;;;;;;;;;-143.90;100.00;55166.81;2098272;28;19924;-65
2022/05/02 03:14:27;;;;;;;;;;;;;;;-143.90;100.00;55244.25;2096865;28;19927;-66
2022/05/02 03:15:48;;;;;;;;;;;;;;;-143.90;100.00;55198.59;2095954;28;19964;-65
2022/05/02 03:17:08;;;;;;;;;;;;;;;-143.90;100.00;55182.69;2097342;28;19925;-66
2022/05/02 03:18:29;;;;;;;;;;;;;;;-143.90;100.00;55186.69;2096931;28;19974;-66
2022/05/02 03:19:50;;;;;;;;;;;;;;;-143.90;100.00;55170.78;2095488;28;20360;-65
2022/05/02 03:21:10;;;;;;;;;;;;;;;-143.90;100.00;55206.53;2096554;28;19928;-66
2022/05/02 03:22:31;;;;;;;;;;;;;;;-143.90;100.00;55210.50;2097430;28;19920;-66
2022/05/02 03:23:52;;;;;;;;;;;;;;;-143.90;100.00;55182.69;2095478;28;19920;-66
2022/05/02 03:25:12;;;;;;;;;;;;;;;-143.90;100.00;55162.84;2097902;28;19924;-65
2022/05/02 03:26:33;;;;;;;;;;;;;;;-143.90;100.00;55186.69;2096090;28;19920;-65
2022/05/02 03:27:54;;;;;;;;;;;;;;;-143.90;100.00;55230.34;2097411;28;19951;-66
2022/05/02 03:29:14;;;;;;;;;;;;;;;-143.90;100.00;55198.59;2096024;28;20288;-65
2022/05/02 03:30:35;;;;;;;;;;;;;;;-143.90;100.00;55186.69;2094836;28;19928;-66
2022/05/02 03:31:55;;;;;;;;;;;;;;;-143.90;100.00;55210.50;2097003;28;20427;-66
2022/05/02 03:33:16;;;;;;;;;;;;;;;-143.90;100.00;55186.69;2096944;28;19928;-65
2022/05/02 03:34:37;;;;;;;;;;;;;;;-143.90;100.00;55214.47;2095957;28;19994;-65
2022/05/02 03:35:57;;;;;;;;;;;;;;;-143.90;100.00;55188.66;2095253;28;20387;-65
2022/05/02 03:37:18;;;;;;;;;;;;;;;-143.90;100.00;55210.50;2096894;28;19920;-65
2022/05/02 03:38:40;;;;;;;;;;;;;;;-143.90;100.00;55260.16;2098090;28;20409;-65
2022/05/02 03:40:00;;;;;;;;;;;;;;;-143.90;100.00;55154.91;2097215;28;20469;-65
2022/05/02 03:41:21;;;;;;;;;;;;;;;-143.90;100.00;55162.84;2097781;28;19931;-65
2022/05/02 03:42:42;;;;;;;;;;;;;;;-143.90;100.00;55206.53;2097091;28;20005;-65
2022/05/02 03:44:03;;;;;;;;;;;;;;;-143.90;100.00;55194.63;2097281;28;19920;-65
2022/05/02 03:45:23;;;;;;;;;;;;;;;-143.90;100.00;55192.63;2096099;28;20474;-65
2022/05/02 03:46:44;;;;;;;;;;;;;;;-143.90;100.00;55166.81;2097109;28;20002;-65
2022/05/02 03:48:05;;;;;;;;;;;;;;;-143.90;100.00;55230.34;2096580;28;19958;-65
2022/05/02 03:49:26;;;;;;;;;;;;;;;-143.90;100.00;55204.53;2097566;28;19924;-65
2022/05/02 03:50:46;;;;;;;;;;;;;;;-143.90;100.00;55178.72;2095838;28;19921;-65
2022/05/02 03:52:07;;;;;;;;;;;;;;;-143.90;100.00;55222.41;2095479;28;19921;-65
2022/05/02 03:53:28;;;;;;;;;;;;;;;-143.90;100.00;55182.69;2096171;28;19952;-66
2022/05/02 03:54:48;;;;;;;;;;;;;;;-143.90;100.00;55224.41;2095800;28;19920;-65
2022/05/02 03:56:09;;;;;;;;;;;;;;;-143.90;100.00;55190.66;2097085;28;19931;-65
2022/05/02 03:57:30;;;;;;;;;;;;;;;-143.90;100.00;55218.44;2096098;28;19971;-65
2022/05/02 03:58:52;;;;;;;;;;;;;;;-143.90;100.00;55234.31;2095553;28;19927;-65
2022/05/02 04:00:13;;;;;;;;;;;;;;;-143.90;100.00;55198.59;2096849;28;19920;-65
2022/05/02 04:01:36;;;;;;;;;;;;;;;-143.90;100.00;55224.41;2095805;28;19947;-65
2022/05/02 04:02:57;;;;;;;;;;;;;;;-143.90;100.00;55248.22;2095783;28;19965;-65
2022/05/02 04:04:18;;;;;;;;;;;;;;;-143.90;100.00;55158.88;2095557;28;19920;-65
2022/05/02 04:05:38;;;;;;;;;;;;;;;-143.90;100.00;55190.66;2095221;28;19962;-66
2022/05/02 04:06:59;;;;;;;;;;;;;;;-143.90;100.00;55166.81;2094968;28;20318;-65
2022/05/02 04:08:20;;;;;;;;;;;;;;;-143.90;100.00;55198.59;2094677;28;20527;-65
2022/05/02 04:09:40;;;;;;;;;;;;;;;-143.90;100.00;55214.47;2096702;28;19920;-65
2022/05/02 04:11:01;;;;;;;;;;;;;;;-143.90;100.00;55214.47;2096438;28;20003;-65
2022/05/02 04:12:22;;;;;;;;;;;;;;;-143.90;100.00;55198.59;2098358;28;19923;-65
2022/05/02 04:13:43;;;;;;;;;;;;;;;-143.90;100.00;55224.41;2089142;28;20068;-65
2022/05/02 04:15:04;;;;;;;;;;;;;;;-143.90;100.00;55182.69;2095025;28;19958;-65
2022/05/02 04:16:25;;;;;;;;;;;;;;;-143.90;100.00;55206.53;2096635;28;19920;-65
2022/05/02 04:17:46;;;;;;;;;;;;;;;-143.90;100.00;55216.47;2096976;28;19927;-66
2022/05/02 04:19:07;;;;;;;;;;;;;;;-143.90;100.00;55214.47;2097538;28;19920;-65
2022/05/02 04:20:28;;;;;;;;;;;;;;;-143.90;100.00;55170.78;2098480;28;19982;-65
2022/05/02 04:21:48;;;;;;;;;;;;;;;-143.90;100.00;55242.28;2095167;28;20491;-66
2022/05/02 04:23:09;;;;;;;;;;;;;;;-143.90;100.00;55194.63;2098130;28;20372;-65
2022/05/02 04:24:30;;;;;;;;;;;;;;;-143.90;100.00;55210.50;2095360;28;19921;-65
2022/05/02 04:25:51;;;;;;;;;;;;;;;-143.90;100.00;55204.53;2095710;28;20003;-65
2022/05/02 04:27:12;;;;;;;;;;;;;;;-143.90;100.00;55186.69;2098481;28;20647;-65
2022/05/02 04:28:34;;;;;;;;;;;;;;;-143.90;100.00;55218.44;2089175;28;19925;-65
2022/05/02 04:29:55;;;;;;;;;;;;;;;-143.90;100.00;55200.56;2095712;28;19966;-65
2022/05/02 04:31:15;;;;;;;;;;;;;;;-143.90;100.00;55226.38;2097369;28;19920;-65
2022/05/02 04:32:36;;;;;;;;;;;;;;;-143.90;100.00;55166.81;2096998;28;19932;-65
2022/05/02 04:33:57;;;;;;;;;;;;;;;-143.90;100.00;55204.53;2097105;28;19920;-65
2022/05/02 04:35:17;;;;;;;;;;;;;;;-143.90;100.00;55202.56;2097566;28;19924;-65
2022/05/02 04:36:38;;;;;;;;;;;;;;;-143.90;100.00;55190.66;2097836;28;20012;-65
2022/05/02 04:38:00;;;;;;;;;;;;;;;-143.90;100.00;55176.75;2097886;28;19920;-65
2022/05/02 04:39:21;;;;;;;;;;;;;;;-143.90;100.00;55178.72;2096177;28;19923;-65
2022/05/02 04:40:42;;;;;;;;;;;;;;;-143.90;100.00;55202.56;2098538;28;19924;-65
2022/05/02 04:42:02;;;;;;;;;;;;;;;-143.90;100.00;55194.63;2097263;28;19928;-65
2022/05/02 04:43:23;;;;;;;;;;;;;;;-143.90;100.00;55190.66;2095557;28;19920;-66
2022/05/02 04:44:44;;;;;;;;;;;;;;;-143.90;100.00;55166.81;2097195;28;19920;-65
2022/05/02 04:46:05;;;;;;;;;;;;;;;-143.90;100.00;55174.75;2095448;28;19920;-65
2022/05/02 04:47:25;;;;;;;;;;;;;;;-143.90;100.00;55166.81;2097916;28;20321;-66
2022/05/02 04:48:46;;;;;;;;;;;;;;;-143.90;100.00;55190.66;2096630;28;19936;-66
2022/05/02 04:50:07;;;;;;;;;;;;;;;-143.90;100.00;55202.56;2096557;28;20609;-65
2022/05/02 04:51:27;;;;;;;;;;;;;;;-143.90;100.00;55156.88;2098264;28;19920;-65
2022/05/02 04:52:48;;;;;;;;;;;;;;;-143.90;100.00;55182.69;2098221;28;19924;-66
2022/05/02 04:54:09;;;;;;;;;;;;;;;-143.90;100.00;55166.81;2097432;28;19916;-65
2022/05/02 04:55:29;;;;;;;;;;;;;;;-143.90;100.00;55202.56;2094513;28;20256;-66
2022/05/02 04:56:50;;;;;;;;;;;;;;;-143.90;100.00;55156.88;2094266;28;19920;-66
2022/05/02 04:58:11;;;;;;;;;;;;;;;-143.90;100.00;55139.03;2096643;28;19921;-65
2022/05/02 04:59:32;;;;;;;;;;;;;;;-143.90;100.00;55194.63;2096281;28;19924;-66
2022/05/02 05:00:52;;;;;;;;;;;;;;;-143.90;100.00;55160.84;2097636;28;19924;-66
2022/05/02 05:02:13;;;;;;;;;;;;;;;-143.90;100.00;55174.75;2095615;28;19920;-65
2022/05/02 05:03:34;;;;;;;;;;;;;;;-143.90;100.00;55168.81;2088821;28;19947;-65
2022/05/02 05:04:55;;;;;;;;;;;;;;;-143.90;100.00;55202.56;2092882;28;20759;-66
2022/05/02 05:06:15;;;;;;;;;;;;;;;-143.90;100.00;55152.91;2097614;28;20455;-66
2022/05/02 05:07:36;;;;;;;;;;;;;;;-143.90;100.00;55194.63;2098128;28;19923;-66
2022/05/02 05:08:57;;;;;;;;;;;;;;;-143.90;100.00;55186.69;2098108;28;19938;-65
2022/05/02 05:10:18;;;;;;;;;;;;;;;-143.90;100.00;55206.53;2096264;28;19936;-65
2022/05/02 05:11:51;;;;;;;;;;;;;;;-143.90;100.00;55178.72;2097200;28;19924;-66
2022/05/02 05:13:12;;;;;;;;;;;;;;;-143.90;100.00;55174.75;2095482;28;19924;-64
2022/05/02 05:16:32;;;;;;;;;;;;;;;-143.90;100.00;55139.03;2096752;28;19927;-64
2022/05/02 05:18:02;;;;;;;;;;;;;;;-143.90;100.00;55154.91;2095085;28;20474;-64
2022/05/02 05:19:22;;;;;;;;;;;;;;;-143.90;100.00;55158.88;2095779;28;19924;-63
2022/05/02 05:20:56;;;;;;;;;;;;;;;-143.90;100.00;55190.66;2094849;28;19924;-64
2022/05/02 05:22:20;;;;;;;;;;;;;;;-143.90;100.00;55160.84;2096235;28;19920;-63
2022/05/02 05:23:44;;;;;;;;;;;;;;;-143.90;100.00;55156.88;2097649;28;19920;-64
2022/05/02 05:25:11;;;;;;;;;;;;;;;-143.90;100.00;55143.00;2097153;28;19912;-64
2022/05/02 05:26:50;;;;;;;;;;;;;;;-143.90;100.00;55137.03;2095722;28;20330;-64
2022/05/02 05:28:15;;;;;;;;;;;;;;;-143.90;100.00;55143.00;2096281;28;19924;-64
2022/05/02 05:29:54;;;;;;;;;;;;;;;-143.90;100.00;55146.97;2095804;28;19928;-64
2022/05/02 05:31:25;;;;;;;;;;;;;;;-143.90;100.00;55152.91;2095368;28;19920;-64
2022/05/02 05:32:52;;;;;;;;;;;;;;;-143.90;100.00;55123.13;2095235;28;19966;-64
2022/05/02 05:34:16;;;;;;;;;;;;;;;-143.90;100.00;55143.00;2095558;28;20019;-64
2022/05/02 05:35:40;;;;;;;;;;;;;;;-143.90;100.00;55143.00;2095380;28;20043;-63
2022/05/02 05:37:21;;;;;;;;;;;;;;;-143.90;100.00;55168.81;2096332;28;20039;-64
2022/05/02 05:38:51;;;;;;;;;;;;;;;-143.90;100.00;55103.28;2096544;28;19927;-64
2022/05/02 05:40:21;;;;;;;;;;;;;;;-143.90;100.00;55139.03;2096801;28;20026;-66
2022/05/02 05:42:01;;;;;;;;;;;;;;;-143.90;100.00;55135.03;2097473;28;19944;-66
2022/05/02 05:43:28;;;;;;;;;;;;;;;-143.90;100.00;55135.03;2096814;28;20448;-66
2022/05/02 05:44:54;;;;;;;;;;;;;;;-143.90;100.00;55131.06;2096432;28;19927;-66
2022/05/02 05:46:17;;;;;;;;;;;;;;;-143.90;100.00;55164.84;2094893;28;19920;-66
2022/05/02 05:47:41;;;;;;;;;;;;;;;-143.90;100.00;55143.00;2096844;28;19966;-65
2022/05/02 05:49:09;;;;;;;;;;;;;;;-143.90;100.00;55103.28;2097063;28;19920;-66
2022/05/02 05:50:31;;;;;;;;;;;;;;;-143.90;97.91;55111.22;2097486;28;19920;-66
2022/05/02 05:52:07;;;;;;;;;;;;;;;-143.90;94.19;55168.81;2094409;28;19926;-66
2022/05/02 05:53:32;;;;;;;;;;;;;;;-143.90;94.75;55146.97;2095391;28;19920;-66
2022/05/02 05:54:55;;;;;;;;;;;;;;;-143.90;93.31;55152.91;2094550;28;19912;-66
2022/05/02 05:56:33;;;;;;;;;;;;;;;-143.90;88.13;55143.00;2097161;28;19924;-65
2022/05/02 05:58:02;;;;;;;;;;;;;;;-143.90;89.33;55093.34;2094870;28;19912;-66
2022/05/02 05:59:25;;;;;;;;;;;;;;;-143.90;84.55;55127.09;2095515;28;20031;-66
2022/05/02 06:00:46;;;;;;;;;;;;;;;-143.90;88.02;55162.84;2095874;28;19936;-66
2022/05/02 06:02:19;;;;;;;;;;;;;;;-143.90;84.87;55119.16;2094759;28;19932;-66
2022/05/02 06:03:51;;;;;;;;;;;;;;;-143.90;86.42;55087.41;2096512;28;19924;-66
2022/05/02 06:05:12;;;;;;;;;;;;;;;-143.90;82.53;55139.03;2095385;28;20183;-66
2022/05/02 06:06:34;;;;;;;;;;;;;;;-143.90;81.08;55107.25;2096311;28;20493;-64
2022/05/02 06:07:55;;;;;;;;;;;;;;;-143.90;79.06;55117.19;2097276;28;19962;-64
2022/05/02 06:09:16;;;;;;;;;;;;;;;-143.90;78.58;55131.06;2095680;28;19931;-64
2022/05/02 06:10:37;;;;;;;;;;;;;;;-143.90;81.02;55123.13;2095886;28;20736;-63
2022/05/02 06:11:59;;;;;;;;;;;;;;;-143.90;82.63;55109.22;2087781;28;19951;-64
2022/05/02 06:13:20;;;;;;;;;;;;;;;-143.90;82.88;55150.94;2094563;28;19920;-63
2022/05/02 06:19:45;;;;;;;;;;;;;;;-143.90;75.07;55099.31;2094464;28;19920;-64
2022/05/02 06:21:06;;;;;;;;;;;;;;;-143.90;73.81;55115.19;2095758;28;19928;-64
2022/05/02 06:22:28;;;;;;;;;;;;;;;-143.90;75.15;55087.41;2095804;28;19920;-64
2022/05/02 06:23:52;;;;;;;;;;;;;;;-143.90;71.83;55107.25;2096469;28;20047;-64
2022/05/02 06:25:13;;;;;;;;;;;;;;;-143.90;72.54;55063.56;2097038;28;20468;-63
2022/05/02 06:26:35;;;;;;;;;;;;;;;-143.90;67.67;55115.19;2096982;28;19924;-63
2022/05/02 06:27:56;;;;;;;;;;;;;;;-143.90;66.06;55059.59;2096499;28;19925;-64
2022/05/02 06:29:17;;;;;;;;;;;;;;;-143.90;66.39;55083.41;2094578;28;19969;-64
2022/05/02 06:30:39;;;;;;;;;;;;;;;-143.90;65.84;55083.41;2093843;28;20471;-61
2022/05/02 06:32:00;;;;;;;;;;;;;;;-143.90;64.47;55093.34;2088428;28;19927;-64
2022/05/02 06:33:21;;;;;;;;;;;;;;;-143.90;63.25;55103.28;2088602;28;19921;-62
2022/05/02 06:34:42;;;;;;;;;;;;;;;-143.90;63.28;55119.16;2082872;28;19955;-61
2022/05/02 06:36:03;;;;;;;;;;;;;;;-143.90;66.06;55107.25;2092564;28;19927;-61
2022/05/02 06:37:31;;;;;;;;;;;;;;;-143.90;65.36;55109.22;2095670;28;19916;-61
2022/05/02 06:38:52;;;;;;;;;;;;;;;-143.90;63.98;55075.47;2095007;28;20402;-61
2022/05/02 06:40:30;;;;;;;;;;;;;;;-143.90;63.42;55107.25;2087662;28;19920;-61
2022/05/02 06:41:57;;;;;;;;;;;;;;;-143.90;60.30;55079.44;2094753;28;19920;-62
2022/05/02 06:43:27;;;;;;;;;;;;;;;-143.90;59.77;55091.38;2095324;28;19920;-61
2022/05/02 06:45:05;;;;;;;;;;;;;;;-143.90;60.23;55097.31;2096501;28;19924;-62
2022/05/02 06:46:34;;;;;;;;;;;;;;;-143.90;58.97;55073.50;2095347;28;19930;-62
2022/05/02 06:47:59;;;;;;;;;;;;;;;-143.90;59.89;55087.41;2095596;28;20027;-61
2022/05/02 06:49:19;;;;;;;;;;;;;;;-143.90;62.46;55087.41;2087975;28;19928;-61
2022/05/02 06:50:40;;;;;;;;;;;;;;;-143.90;59.89;55079.44;2091896;28;19934;-61
2022/05/02 06:52:01;;;;;;;;;;;;;;;-143.90;57.31;55119.16;2096673;28;19926;-61
2022/05/02 06:53:26;;;;;;;;;;;;;;;-143.90;58.04;55051.66;2095945;28;19920;-61
2022/05/02 06:54:59;;;;;;;;;;;;;;;-143.90;59.17;55091.38;2095454;28;20464;-61
2022/05/02 06:56:36;;;;;;;;;;;;;;;-143.90;59.22;55103.28;2095398;28;19928;-62
2022/05/02 06:58:12;;;;;;;;;;;;;;;-143.90;57.31;55099.31;2094972;28;20025;-61
2022/05/02 06:59:40;;;;;;;;;;;;;;;-143.90;54.96;55055.63;2087628;28;19927;-62
2022/05/02 07:01:09;;;;;;;;;;;;;;;-143.90;55.44;55053.63;2093832;28;20066;-61
2022/05/02 07:02:36;;;;;;;;;;;;;;;-143.90;58.96;55071.50;2095257;28;20290;-61
2022/05/02 07:03:56;;;;;;;;;;;;;;;-143.90;57.63;55099.31;2095414;28;19920;-62